sensor_id;sensor_type;location;lat;lon;timestamp;pressure;altitude;pressure_sealevel;temperature;humidity
12897;BME280;6516;35.028;32.372;2023-02-01T00:00:42;99204.22;;;11.81;61.70
12897;BME280;6516;35.028;32.372;2023-02-01T00:03:10;99203.59;;;11.74;61.99
12897;BME280;6516;35.028;32.372;2023-02-01T00:05:38;99195.03;;;11.68;61.92
12897;BME280;6516;35.028;32.372;2023-02-01T00:08:08;99191.66;;;11.64;62.22
12897;BME280;6516;35.028;32.372;2023-02-01T00:10:36;99188.22;;;11.62;62.63
12897;BME280;6516;35.028;32.372;2023-02-01T00:13:04;99189.28;;;11.57;63.25
12897;BME280;6516;35.028;32.372;2023-02-01T00:15:32;99193.69;;;11.56;63.83
12897;BME280;6516;35.028;32.372;2023-02-01T00:18:00;99191.94;;;11.57;64.47
12897;BME280;6516;35.028;32.372;2023-02-01T00:20:27;99194.66;;;11.54;65.17
12897;BME280;6516;35.028;32.372;2023-02-01T00:22:55;99195.44;;;11.56;65.80
12897;BME280;6516;35.028;32.372;2023-02-01T00:25:24;99186.66;;;11.57;65.75
12897;BME280;6516;35.028;32.372;2023-02-01T00:27:52;99183.88;;;11.61;65.79
12897;BME280;6516;35.028;32.372;2023-02-01T00:30:20;99179.13;;;11.71;65.55
12897;BME280;6516;35.028;32.372;2023-02-01T00:32:49;99186.22;;;11.69;65.47
12897;BME280;6516;35.028;32.372;2023-02-01T00:35:17;99182.78;;;11.67;65.29
12897;BME280;6516;35.028;32.372;2023-02-01T00:37:47;99173.03;;;11.69;65.73
12897;BME280;6516;35.028;32.372;2023-02-01T00:40:15;99170.44;;;11.67;65.98
12897;BME280;6516;35.028;32.372;2023-02-01T00:42:45;99170.63;;;11.63;66.26
12897;BME280;6516;35.028;32.372;2023-02-01T00:45:12;99170.75;;;11.60;66.28
12897;BME280;6516;35.028;32.372;2023-02-01T00:47:40;99169.00;;;11.59;66.25
12897;BME280;6516;35.028;32.372;2023-02-01T00:50:09;99166.53;;;11.54;66.16
12897;BME280;6516;35.028;32.372;2023-02-01T00:52:37;99170.84;;;11.57;65.77
12897;BME280;6516;35.028;32.372;2023-02-01T00:55:06;99170.84;;;11.57;65.28
12897;BME280;6516;35.028;32.372;2023-02-01T00:57:34;99163.66;;;11.62;65.03
12897;BME280;6516;35.028;32.372;2023-02-01T01:00:04;99159.31;;;11.61;65.27
12897;BME280;6516;35.028;32.372;2023-02-01T01:02:33;99158.88;;;11.71;65.49
12897;BME280;6516;35.028;32.372;2023-02-01T01:05:01;99153.59;;;11.71;65.84
12897;BME280;6516;35.028;32.372;2023-02-01T01:07:28;99153.69;;;11.70;65.97
12897;BME280;6516;35.028;32.372;2023-02-01T01:09:56;99149.25;;;11.70;65.97
12897;BME280;6516;35.028;32.372;2023-02-01T01:12:24;99149.13;;;11.73;65.60
12897;BME280;6516;35.028;32.372;2023-02-01T01:14:52;99144.72;;;11.74;65.40
12897;BME280;6516;35.028;32.372;2023-02-01T01:17:21;99139.38;;;11.75;65.49
12897;BME280;6516;35.028;32.372;2023-02-01T01:19:49;99141.03;;;11.78;64.75
12897;BME280;6516;35.028;32.372;2023-02-01T01:22:16;99133.06;;;11.79;64.84
12897;BME280;6516;35.028;32.372;2023-02-01T01:24:44;99132.09;;;11.82;64.75
12897;BME280;6516;35.028;32.372;2023-02-01T01:27:12;99132.19;;;11.79;64.91
12897;BME280;6516;35.028;32.372;2023-02-01T01:29:40;99130.53;;;11.76;64.80
12897;BME280;6516;35.028;32.372;2023-02-01T01:32:08;99136.75;;;11.75;64.74
12897;BME280;6516;35.028;32.372;2023-02-01T01:34:37;99129.72;;;11.76;64.36
12897;BME280;6516;35.028;32.372;2023-02-01T01:37:05;99133.25;;;11.75;64.21
12897;BME280;6516;35.028;32.372;2023-02-01T01:39:32;99127.19;;;11.73;64.32
12897;BME280;6516;35.028;32.372;2023-02-01T01:42:01;99128.88;;;11.74;64.45
12897;BME280;6516;35.028;32.372;2023-02-01T01:44:55;99117.66;;;11.69;64.95
12897;BME280;6516;35.028;32.372;2023-02-01T01:47:25;99114.91;;;11.72;64.97
12897;BME280;6516;35.028;32.372;2023-02-01T01:49:55;99108.03;;;11.68;65.03
12897;BME280;6516;35.028;32.372;2023-02-01T01:52:23;99101.84;;;11.69;64.97
12897;BME280;6516;35.028;32.372;2023-02-01T01:54:53;99108.03;;;11.68;65.23
12897;BME280;6516;35.028;32.372;2023-02-01T01:57:24;99102.78;;;11.68;65.58
12897;BME280;6516;35.028;32.372;2023-02-01T01:59:58;99108.03;;;11.68;65.83
12897;BME280;6516;35.028;32.372;2023-02-01T02:02:30;99102.66;;;11.71;65.90
12897;BME280;6516;35.028;32.372;2023-02-01T02:04:59;99100.81;;;11.73;65.94
12897;BME280;6516;35.028;32.372;2023-02-01T02:07:30;99097.38;;;11.71;66.31
12897;BME280;6516;35.028;32.372;2023-02-01T02:09:59;99101.72;;;11.72;66.22
12897;BME280;6516;35.028;32.372;2023-02-01T02:12:28;99096.63;;;11.67;66.74
12897;BME280;6516;35.028;32.372;2023-02-01T02:14:56;99093.31;;;11.62;66.96
12897;BME280;6516;35.028;32.372;2023-02-01T02:17:33;99096.94;;;11.58;67.26
12897;BME280;6516;35.028;32.372;2023-02-01T02:20:38;99090.94;;;11.55;67.65
12897;BME280;6516;35.028;32.372;2023-02-01T02:27:05;99094.63;;;11.51;67.72
12897;BME280;6516;35.028;32.372;2023-02-01T02:33:42;99089.78;;;11.63;67.59
12897;BME280;6516;35.028;32.372;2023-02-01T02:36:21;99100.88;;;11.71;67.63
12897;BME280;6516;35.028;32.372;2023-02-01T02:39:05;99090.00;;;11.79;67.78
12897;BME280;6516;35.028;32.372;2023-02-01T02:41:42;99088.25;;;11.79;68.18
12897;BME280;6516;35.028;32.372;2023-02-01T02:44:38;99087.47;;;11.77;67.97
12897;BME280;6516;35.028;32.372;2023-02-01T02:47:34;99091.31;;;11.69;67.99
12897;BME280;6516;35.028;32.372;2023-02-01T02:50:14;99080.06;;;11.64;67.66
12897;BME280;6516;35.028;32.372;2023-02-01T02:53:12;99075.84;;;11.60;67.42
12897;BME280;6516;35.028;32.372;2023-02-01T02:56:00;99087.28;;;11.59;67.70
12897;BME280;6516;35.028;32.372;2023-02-01T02:58:48;99102.16;;;11.61;68.28
12897;BME280;6516;35.028;32.372;2023-02-01T03:01:33;99096.13;;;11.35;73.98
12897;BME280;6516;35.028;32.372;2023-02-01T03:04:18;99132.84;;;10.67;82.06
12897;BME280;6516;35.028;32.372;2023-02-01T03:06:48;99149.81;;;10.06;85.75
12897;BME280;6516;35.028;32.372;2023-02-01T03:09:20;99143.50;;;9.54;89.26
12897;BME280;6516;35.028;32.372;2023-02-01T03:11:54;99114.38;;;9.34;91.32
12897;BME280;6516;35.028;32.372;2023-02-01T03:14:52;99108.78;;;9.15;92.13
12897;BME280;6516;35.028;32.372;2023-02-01T03:17:29;99111.78;;;9.03;92.61
12897;BME280;6516;35.028;32.372;2023-02-01T03:20:01;99112.03;;;8.94;92.27
12897;BME280;6516;35.028;32.372;2023-02-01T03:22:33;99110.56;;;8.84;92.59
12897;BME280;6516;35.028;32.372;2023-02-01T03:25:05;99102.81;;;8.80;91.75
12897;BME280;6516;35.028;32.372;2023-02-01T03:27:39;99109.88;;;8.78;92.13
12897;BME280;6516;35.028;32.372;2023-02-01T03:30:13;99099.44;;;8.75;92.69
12897;BME280;6516;35.028;32.372;2023-02-01T03:32:48;99111.81;;;8.71;92.72
12897;BME280;6516;35.028;32.372;2023-02-01T03:35:30;99103.91;;;8.73;92.58
12897;BME280;6516;35.028;32.372;2023-02-01T03:38:08;99106.44;;;8.74;92.26
